createdAt,value
2018-05-31T00:02:31.898Z,71.00
2018-05-31T00:05:07.234Z,70.60
2018-05-31T00:07:42.418Z,70.90
2018-05-31T00:10:18.447Z,70.80
2018-05-31T00:12:53.648Z,70.80
2018-05-31T00:15:28.928Z,70.80
2018-05-31T00:18:04.063Z,71.40
2018-05-31T00:20:39.400Z,71.50
2018-05-31T00:23:14.494Z,71.30
2018-05-31T00:25:50.426Z,71.90
2018-05-31T00:28:26.317Z,71.80
2018-05-31T00:31:02.223Z,72.00
2018-05-31T00:33:38.132Z,72.20
2018-05-31T00:36:13.339Z,72.20
2018-05-31T00:38:48.544Z,72.50
2018-05-31T00:41:23.762Z,72.80
2018-05-31T00:43:59.093Z,73.00
2018-05-31T00:46:34.398Z,73.10
2018-05-31T00:49:09.520Z,73.00
2018-05-31T00:51:44.839Z,72.60
2018-05-31T00:54:20.084Z,72.40
2018-05-31T00:56:55.426Z,72.50
2018-05-31T00:59:31.362Z,72.90
2018-05-31T01:02:06.598Z,72.90
2018-05-31T01:04:41.751Z,72.90
2018-05-31T01:07:17.083Z,73.40
2018-05-31T01:09:52.189Z,73.90
2018-05-31T01:12:28.092Z,74.90
2018-05-31T01:15:03.395Z,74.80
2018-05-31T01:17:38.549Z,75.60
2018-05-31T01:20:14.501Z,76.10
2018-05-31T01:22:49.683Z,76.10
2018-05-31T01:25:24.779Z,76.40
2018-05-31T01:28:00.116Z,76.70
2018-05-31T01:30:35.478Z,77.10
2018-05-31T01:33:10.726Z,77.30
2018-05-31T01:35:46.038Z,77.60
2018-05-31T01:38:34.812Z,77.80
2018-05-31T01:41:10.013Z,77.80
2018-05-31T01:43:45.175Z,77.80
2018-05-31T01:46:20.499Z,78.00
2018-05-31T01:48:55.642Z,78.30
2018-05-31T01:51:30.863Z,78.20
2018-05-31T01:54:06.854Z,77.70
2018-05-31T01:56:41.986Z,77.70
2018-05-31T01:59:17.322Z,77.40
2018-05-31T02:01:52.550Z,78.40
2018-05-31T02:04:28.533Z,78.30
2018-05-31T02:07:04.515Z,78.00
2018-05-31T02:09:39.635Z,78.00
2018-05-31T02:12:14.972Z,78.30
2018-05-31T02:14:50.603Z,81.10
2018-05-31T02:17:25.952Z,81.30
2018-05-31T02:20:01.295Z,76.10
2018-05-31T02:22:37.503Z,72.90
2018-05-31T02:25:13.404Z,73.00
2018-05-31T02:27:49.820Z,73.10
2018-05-31T02:30:24.902Z,72.50
2018-05-31T02:33:00.351Z,73.00
2018-05-31T02:35:35.686Z,72.80
2018-05-31T02:38:11.020Z,72.30
2018-05-31T02:40:46.224Z,73.20
2018-05-31T02:43:21.494Z,73.90
2018-05-31T02:45:56.748Z,74.70
2018-05-31T02:48:31.909Z,76.70
2018-05-31T02:51:07.851Z,78.20
2018-05-31T02:53:43.276Z,78.20
2018-05-31T02:56:18.486Z,78.10
2018-05-31T02:58:53.648Z,77.40
2018-05-31T03:01:29.522Z,77.00
2018-05-31T03:04:05.506Z,77.70
2018-05-31T03:06:40.690Z,77.70
2018-05-31T03:09:15.848Z,78.30
2018-05-31T03:11:51.808Z,78.90
2018-05-31T03:14:27.036Z,78.90
2018-05-31T03:17:02.291Z,79.40
2018-05-31T03:19:37.652Z,80.60
2018-05-31T03:22:12.960Z,81.50
2018-05-31T03:24:48.946Z,82.80
2018-05-31T03:27:24.249Z,82.10
2018-05-31T03:30:00.246Z,81.00
2018-05-31T03:32:35.439Z,80.90
2018-05-31T03:35:10.815Z,80.70
2018-05-31T03:37:45.919Z,79.80
2018-05-31T03:40:21.189Z,80.10
2018-05-31T03:42:56.894Z,79.70
2018-05-31T03:45:32.799Z,78.70
2018-05-31T03:48:08.741Z,79.40
2018-05-31T03:50:44.602Z,79.00
2018-05-31T03:53:19.963Z,79.10
2018-05-31T03:55:55.920Z,78.10
2018-05-31T03:58:31.834Z,77.60
2018-05-31T04:01:07.836Z,77.40
2018-05-31T04:03:42.995Z,77.50
2018-05-31T04:06:18.293Z,76.10
2018-05-31T04:08:53.600Z,75.30
2018-05-31T04:11:29.496Z,75.80
2018-05-31T04:14:04.719Z,75.90
2018-05-31T04:16:40.103Z,77.50
2018-05-31T04:19:16.126Z,78.20
2018-05-31T04:21:51.316Z,78.40
2018-05-31T04:24:26.592Z,77.80
2018-05-31T04:27:01.816Z,77.40
2018-05-31T04:29:37.176Z,76.30
2018-05-31T04:32:13.244Z,75.40
2018-05-31T04:34:48.574Z,75.40
2018-05-31T04:37:23.905Z,75.20
2018-05-31T04:39:59.090Z,74.80
2018-05-31T04:42:34.450Z,74.60
2018-05-31T04:45:10.262Z,73.80
2018-05-31T04:47:46.211Z,72.90
2018-05-31T04:50:22.084Z,72.30
2018-05-31T04:52:57.289Z,72.20
2018-05-31T04:55:32.443Z,72.20
2018-05-31T04:58:08.491Z,72.40
2018-05-31T05:00:43.679Z,71.70
2018-05-31T05:03:19.587Z,72.20
2018-05-31T05:05:54.783Z,72.10
2018-05-31T05:08:30.087Z,72.50
2018-05-31T05:11:06.029Z,72.40
2018-05-31T05:13:41.983Z,72.10
2018-05-31T05:16:17.123Z,72.10
2018-05-31T05:18:52.458Z,72.30
2018-05-31T05:21:27.582Z,72.10
2018-05-31T05:24:02.931Z,71.60
2018-05-31T05:26:38.207Z,71.50
2018-05-31T05:29:14.038Z,72.00
2018-05-31T05:31:49.912Z,71.90
2018-05-31T05:34:25.111Z,71.80
2018-05-31T05:37:00.327Z,71.40
2018-05-31T05:39:35.461Z,69.70
2018-05-31T05:42:10.743Z,68.10
2018-05-31T05:44:46.078Z,65.20
2018-05-31T05:47:21.434Z,63.20
2018-05-31T05:49:56.735Z,60.60
2018-05-31T05:52:32.046Z,58.80
2018-05-31T05:55:07.954Z,56.10
2018-05-31T05:57:43.947Z,54.80
2018-05-31T06:00:19.138Z,54.80
2018-05-31T06:02:55.043Z,53.60
2018-05-31T06:05:30.231Z,53.50
2018-05-31T06:08:05.550Z,54.10
2018-05-31T06:10:41.472Z,54.60
2018-05-31T06:13:16.615Z,54.60
2018-05-31T06:15:51.953Z,54.70
2018-05-31T06:18:28.706Z,54.40
2018-05-31T06:21:03.763Z,54.70
2018-05-31T06:23:39.072Z,54.10
2018-05-31T06:26:14.503Z,54.70
2018-05-31T06:28:49.775Z,53.60
2018-05-31T06:31:24.881Z,54.40
2018-05-31T06:34:00.865Z,54.70
2018-05-31T06:36:36.734Z,55.10
2018-05-31T06:39:11.915Z,55.10
2018-05-31T06:41:48.226Z,54.60
2018-05-31T06:44:24.116Z,56.30
2018-05-31T06:46:59.413Z,56.20
2018-05-31T06:49:35.523Z,56.00
2018-05-31T06:52:10.600Z,57.00
2018-05-31T06:54:45.929Z,57.70
2018-05-31T06:57:21.116Z,57.20
2018-05-31T06:59:56.349Z,57.60
2018-05-31T07:02:31.691Z,58.40
2018-05-31T07:05:06.990Z,59.40
2018-05-31T07:07:42.341Z,59.80
2018-05-31T07:10:18.412Z,60.40
2018-05-31T07:12:54.410Z,59.50
2018-05-31T07:15:30.230Z,59.20
2018-05-31T07:18:05.463Z,59.20
2018-05-31T07:20:40.577Z,60.00
2018-05-31T07:23:15.839Z,60.50
2018-05-31T07:25:51.181Z,60.30
2018-05-31T07:28:27.309Z,60.50
2018-05-31T07:31:03.360Z,60.50
2018-05-31T07:33:38.490Z,60.30
2018-05-31T07:36:13.754Z,61.00
2018-05-31T07:38:49.124Z,61.40
2018-05-31T07:41:24.447Z,59.70
2018-05-31T07:44:00.442Z,57.90
2018-05-31T07:46:35.543Z,57.90
2018-05-31T07:49:10.822Z,56.50
2018-05-31T07:51:46.141Z,55.40
2018-05-31T07:54:21.301Z,54.50
2018-05-31T07:56:56.596Z,54.80
2018-05-31T07:59:31.971Z,55.50
2018-05-31T08:02:07.943Z,53.60
2018-05-31T08:04:43.013Z,53.50
2018-05-31T08:07:18.926Z,49.80
2018-05-31T08:09:54.258Z,49.80
2018-05-31T08:12:29.632Z,48.50
2018-05-31T08:15:04.753Z,48.30
2018-05-31T08:17:40.074Z,48.10
2018-05-31T08:20:15.403Z,50.20
2018-05-31T08:22:50.573Z,52.10
2018-05-31T08:25:25.899Z,53.20
2018-05-31T08:28:01.334Z,53.30
2018-05-31T08:30:37.295Z,55.60
2018-05-31T08:33:12.959Z,55.50
2018-05-31T08:35:48.059Z,56.10
2018-05-31T08:38:23.981Z,56.20
2018-05-31T08:40:59.144Z,56.20
2018-05-31T08:43:34.402Z,55.20
2018-05-31T08:46:10.455Z,55.20
2018-05-31T08:48:46.484Z,55.50
2018-05-31T08:51:21.907Z,55.50
2018-05-31T08:53:58.319Z,56.00
2018-05-31T08:56:33.383Z,56.90
2018-05-31T08:59:08.639Z,59.20
2018-05-31T09:01:43.935Z,63.20
2018-05-31T09:04:19.957Z,68.20
2018-05-31T09:06:55.856Z,67.30
2018-05-31T09:09:31.123Z,67.30
2018-05-31T09:12:06.255Z,62.10
2018-05-31T09:14:41.511Z,54.90
2018-05-31T09:17:16.615Z,57.90
2018-05-31T09:19:51.895Z,53.70
2018-05-31T09:22:27.037Z,52.20
2018-05-31T09:25:02.816Z,49.80
2018-05-31T09:27:39.115Z,52.70
2018-05-31T09:30:14.459Z,52.00
2018-05-31T09:32:50.407Z,49.50
2018-05-31T09:35:25.564Z,49.50
2018-05-31T09:38:00.758Z,50.20
2018-05-31T09:40:36.038Z,49.70
2018-05-31T09:43:11.375Z,47.60
2018-05-31T09:45:46.638Z,46.40
2018-05-31T09:48:29.205Z,46.70
2018-05-31T09:51:09.270Z,42.20
2018-05-31T09:53:45.763Z,42.20
2018-05-31T09:56:21.727Z,41.70
2018-05-31T09:58:56.830Z,41.80
2018-05-31T10:01:32.086Z,40.70
2018-05-31T10:04:08.622Z,39.80
2018-05-31T10:06:43.798Z,39.80
2018-05-31T10:09:19.035Z,38.70
2018-05-31T10:11:55.215Z,39.40
2018-05-31T10:14:30.535Z,39.80
2018-05-31T10:17:06.020Z,42.20
2018-05-31T10:19:41.965Z,42.30
2018-05-31T10:22:17.189Z,42.30
2018-05-31T10:24:53.061Z,41.40
2018-05-31T10:27:28.998Z,39.60
2018-05-31T10:30:04.337Z,39.60
2018-05-31T10:32:39.448Z,42.20
2018-05-31T10:35:15.447Z,39.60
2018-05-31T10:37:50.571Z,39.70
2018-05-31T10:40:26.639Z,41.60
2018-05-31T10:43:02.582Z,41.90
2018-05-31T10:45:37.718Z,41.90
2018-05-31T10:48:13.052Z,40.00
2018-05-31T10:50:48.930Z,39.90
2018-05-31T10:53:24.045Z,39.90
2018-05-31T10:55:59.288Z,40.60
2018-05-31T10:58:34.632Z,39.00
2018-05-31T11:01:09.975Z,40.40
2018-05-31T11:03:45.303Z,39.80
2018-05-31T11:06:20.672Z,39.00
2018-05-31T11:08:55.858Z,41.40
2018-05-31T11:11:31.129Z,41.80
2018-05-31T11:14:06.487Z,41.20
2018-05-31T11:16:41.879Z,40.30
2018-05-31T11:19:18.432Z,39.30
2018-05-31T11:21:53.631Z,42.00
2018-05-31T11:24:29.074Z,39.70
2018-05-31T11:27:04.423Z,41.50
2018-05-31T11:29:41.944Z,41.70
2018-05-31T11:32:17.887Z,43.20
2018-05-31T11:34:53.211Z,43.20
2018-05-31T11:37:28.439Z,43.10
2018-05-31T11:40:04.429Z,41.00
2018-05-31T11:42:40.355Z,40.70
2018-05-31T11:45:15.498Z,40.70
2018-05-31T11:47:51.438Z,39.60
2018-05-31T11:50:27.427Z,42.20
2018-05-31T11:53:02.630Z,42.10
2018-05-31T11:55:37.993Z,41.90
2018-05-31T11:58:13.195Z,41.50
2018-05-31T12:00:48.723Z,42.80
2018-05-31T12:03:23.895Z,40.20
2018-05-31T12:05:59.047Z,41.30
2018-05-31T12:08:34.542Z,41.00
2018-05-31T12:11:09.827Z,38.90
2018-05-31T12:13:45.160Z,37.80
2018-05-31T12:16:20.475Z,38.90
2018-05-31T12:18:55.646Z,37.00
2018-05-31T12:21:31.002Z,36.00
2018-05-31T12:24:06.348Z,37.20
2018-05-31T12:26:41.694Z,38.10
2018-05-31T12:29:17.453Z,37.60
2018-05-31T12:31:52.674Z,38.60
2018-05-31T12:34:28.377Z,39.60
2018-05-31T12:37:03.575Z,38.60
2018-05-31T12:39:39.545Z,39.40
2018-05-31T12:42:14.759Z,39.40
2018-05-31T12:44:49.824Z,40.30
2018-05-31T12:47:25.849Z,42.40
2018-05-31T12:50:01.055Z,42.40
2018-05-31T12:52:36.398Z,40.30
2018-05-31T12:55:11.583Z,40.30
2018-05-31T12:57:46.723Z,39.70
2018-05-31T13:00:22.035Z,39.20
2018-05-31T13:02:57.180Z,39.00
2018-05-31T13:05:33.333Z,39.50
2018-05-31T13:08:08.561Z,38.10
2018-05-31T13:10:43.909Z,39.10
2018-05-31T13:13:21.072Z,39.20
2018-05-31T13:15:56.695Z,40.30
2018-05-31T13:18:31.990Z,36.10
2018-05-31T13:21:07.232Z,36.20
2018-05-31T13:23:42.562Z,37.00
2018-05-31T13:26:18.566Z,40.90
2018-05-31T13:28:53.804Z,40.80
2018-05-31T13:31:29.116Z,41.70
2018-05-31T13:34:04.563Z,39.80
2018-05-31T13:36:40.219Z,39.70
2018-05-31T13:39:15.526Z,38.90
2018-05-31T13:41:50.825Z,39.10
2018-05-31T13:44:26.919Z,39.40
2018-05-31T13:47:02.038Z,39.90
2018-05-31T13:49:37.318Z,40.20
2018-05-31T13:52:13.541Z,43.00
2018-05-31T13:54:48.618Z,43.20
2018-05-31T13:57:23.879Z,45.00
2018-05-31T14:00:00.944Z,46.30
2018-05-31T14:02:36.245Z,46.10
2018-05-31T14:05:12.265Z,46.70
2018-05-31T14:07:47.565Z,46.80
2018-05-31T14:10:22.838Z,47.60
2018-05-31T14:12:58.175Z,47.40
2018-05-31T14:15:36.500Z,46.30
2018-05-31T14:18:13.037Z,49.40
2018-05-31T14:20:48.328Z,49.40
2018-05-31T14:23:24.255Z,46.70
2018-05-31T14:26:00.389Z,46.90
2018-05-31T14:28:35.656Z,46.50
2018-05-31T14:31:10.959Z,46.90
2018-05-31T14:33:47.774Z,47.40
2018-05-31T14:36:23.110Z,47.40
2018-05-31T14:38:59.736Z,44.20
2018-05-31T14:41:35.519Z,44.00
2018-05-31T14:44:11.725Z,43.20
2018-05-31T14:46:47.010Z,42.80
2018-05-31T14:49:23.118Z,44.20
2018-05-31T14:51:59.358Z,44.30
2018-05-31T14:54:35.506Z,45.40
2018-05-31T14:57:10.737Z,45.40
2018-05-31T14:59:46.972Z,47.60
2018-05-31T15:02:22.263Z,48.90
2018-05-31T15:04:59.430Z,50.30
2018-05-31T15:07:34.847Z,53.70
2018-05-31T15:10:10.770Z,54.20
2018-05-31T15:12:46.100Z,54.20
2018-05-31T15:15:22.355Z,55.20
2018-05-31T15:17:57.527Z,53.70
2018-05-31T15:20:33.440Z,52.30
2018-05-31T15:23:09.416Z,55.60
2018-05-31T15:25:46.668Z,56.80
2018-05-31T15:28:21.849Z,56.70
2018-05-31T15:30:57.790Z,57.20
2018-05-31T15:33:32.989Z,57.10
2018-05-31T15:36:08.262Z,54.60
2018-05-31T15:38:43.650Z,54.20
2018-05-31T15:41:20.788Z,55.40
2018-05-31T15:43:56.063Z,55.40
2018-05-31T15:46:31.978Z,58.60
2018-05-31T15:49:08.991Z,58.90
2018-05-31T15:51:44.322Z,58.90
2018-05-31T15:54:20.373Z,56.30
2018-05-31T15:56:55.606Z,56.40
2018-05-31T15:59:31.498Z,48.00
2018-05-31T16:02:06.657Z,48.00
2018-05-31T16:04:42.532Z,46.40
2018-05-31T16:07:20.206Z,48.00
2018-05-31T16:09:56.119Z,48.80
2018-05-31T16:12:32.068Z,49.20
2018-05-31T16:15:07.592Z,49.20
2018-05-31T16:17:42.820Z,48.70
2018-05-31T16:20:18.846Z,48.60
2018-05-31T16:22:54.886Z,49.40
2018-05-31T16:25:30.142Z,49.40
2018-05-31T16:28:05.293Z,49.40
2018-05-31T16:30:40.479Z,51.30
2018-05-31T16:33:16.462Z,52.30
2018-05-31T16:35:51.578Z,52.50
2018-05-31T16:38:27.908Z,53.00
2018-05-31T16:41:03.294Z,54.70
2018-05-31T16:43:39.218Z,55.60
2018-05-31T16:46:15.200Z,54.60
2018-05-31T16:48:51.047Z,54.60
2018-05-31T16:51:27.076Z,54.90
2018-05-31T16:54:02.435Z,54.90
2018-05-31T16:56:37.556Z,55.80
2018-05-31T16:59:12.758Z,57.00
2018-05-31T17:01:48.367Z,56.00
2018-05-31T17:04:23.827Z,56.20
2018-05-31T17:06:59.115Z,56.10
2018-05-31T17:09:34.402Z,56.90
2018-05-31T17:12:09.599Z,57.70
2018-05-31T17:14:46.056Z,59.90
2018-05-31T17:17:21.941Z,61.10
2018-05-31T17:19:57.362Z,61.10
2018-05-31T17:22:33.537Z,63.40
2018-05-31T17:25:08.735Z,63.70
2018-05-31T17:27:43.898Z,64.10
2018-05-31T17:30:20.073Z,64.00
2018-05-31T17:32:55.416Z,64.00
2018-05-31T17:35:31.848Z,62.90
2018-05-31T17:38:07.015Z,61.80
2018-05-31T17:40:42.264Z,60.70
2018-05-31T17:43:17.427Z,60.60
2018-05-31T17:45:52.653Z,59.90
2018-05-31T17:48:27.877Z,60.00
2018-05-31T17:51:03.231Z,59.70
2018-05-31T17:53:38.444Z,59.70
2018-05-31T17:56:14.376Z,61.00
2018-05-31T17:58:49.530Z,61.00
2018-05-31T18:01:25.805Z,61.90
2018-05-31T18:04:01.081Z,61.90
2018-05-31T18:06:36.949Z,61.80
2018-05-31T18:09:12.127Z,61.50
2018-05-31T18:11:47.379Z,62.20
2018-05-31T18:14:22.689Z,62.50
2018-05-31T18:16:57.815Z,62.80
2018-05-31T18:19:33.825Z,62.60
2018-05-31T18:22:09.009Z,62.60
2018-05-31T18:24:44.924Z,62.90
2018-05-31T18:27:20.897Z,62.90
2018-05-31T18:29:56.019Z,62.90
2018-05-31T18:32:31.306Z,63.70
2018-05-31T18:35:06.563Z,63.70
2018-05-31T18:37:41.823Z,63.70
2018-05-31T18:40:17.155Z,63.90
2018-05-31T18:42:52.420Z,64.10
2018-05-31T18:45:28.346Z,64.70
2018-05-31T18:48:03.727Z,64.70
2018-05-31T18:50:39.574Z,64.60
2018-05-31T18:53:14.791Z,64.90
2018-05-31T18:55:50.426Z,65.30
2018-05-31T18:58:26.320Z,65.80
2018-05-31T19:01:01.472Z,65.80
2018-05-31T19:03:36.685Z,66.20
2018-05-31T19:06:11.932Z,66.90
2018-05-31T19:08:47.085Z,67.70
2018-05-31T19:11:23.084Z,68.50
2018-05-31T19:13:59.114Z,68.50
2018-05-31T19:16:34.467Z,68.40
2018-05-31T19:19:15.972Z,68.10
2018-05-31T19:21:51.343Z,68.00
2018-05-31T19:24:31.711Z,67.70
2018-05-31T19:27:07.002Z,68.30
2018-05-31T19:29:42.160Z,69.00
2018-05-31T19:32:18.080Z,69.40
2018-05-31T19:34:53.369Z,69.50
2018-05-31T19:37:28.712Z,70.10
2018-05-31T19:40:04.032Z,69.30
2018-05-31T19:42:44.698Z,69.40
2018-05-31T19:45:19.954Z,69.00
2018-05-31T19:47:55.244Z,68.60
2018-05-31T19:50:31.141Z,68.70
2018-05-31T19:53:11.816Z,68.50
2018-05-31T19:55:47.121Z,69.10
2018-05-31T19:58:28.132Z,69.30
2018-05-31T20:01:08.785Z,69.60
2018-05-31T20:03:44.176Z,70.20
2018-05-31T20:06:19.244Z,71.60
2018-05-31T20:08:54.524Z,72.30
2018-05-31T20:11:30.477Z,73.20
2018-05-31T20:14:05.695Z,73.20
2018-05-31T20:16:40.831Z,74.10
2018-05-31T20:19:16.738Z,74.40
2018-05-31T20:21:52.703Z,75.00
2018-05-31T20:24:27.844Z,75.00
2018-05-31T20:27:03.049Z,74.90
2018-05-31T20:29:39.000Z,75.00
2018-05-31T20:32:14.243Z,75.00
2018-05-31T20:34:49.526Z,74.60
2018-05-31T20:37:24.832Z,74.80
2018-05-31T20:40:00.043Z,75.50
2018-05-31T20:42:35.406Z,75.80
2018-05-31T20:45:11.375Z,76.00
2018-05-31T20:47:46.709Z,76.00
2018-05-31T20:50:22.181Z,76.30
2018-05-31T20:52:57.486Z,76.30
2018-05-31T20:55:33.352Z,76.40
2018-05-31T20:58:08.890Z,76.50
2018-05-31T21:00:44.187Z,76.80
2018-05-31T21:03:20.206Z,77.40
2018-05-31T21:05:56.344Z,76.40
2018-05-31T21:08:32.339Z,76.10
2018-05-31T21:11:07.902Z,76.10
2018-05-31T21:13:43.986Z,75.30
2018-05-31T21:16:19.867Z,73.80
2018-05-31T21:18:55.084Z,73.70
2018-05-31T21:21:30.456Z,73.70
2018-05-31T21:24:06.316Z,72.20
2018-05-31T21:26:41.472Z,72.30
2018-05-31T21:29:17.011Z,72.80
2018-05-31T21:31:52.995Z,73.30
2018-05-31T21:34:28.293Z,73.30
2018-05-31T21:37:03.754Z,73.10
2018-05-31T21:39:39.063Z,72.80
2018-05-31T21:42:14.304Z,72.50
2018-05-31T21:44:49.866Z,72.10
2018-05-31T21:47:25.703Z,72.10
2018-05-31T21:50:01.080Z,72.20
2018-05-31T21:52:37.130Z,73.00
2018-05-31T21:55:13.097Z,73.40
2018-05-31T21:57:48.162Z,73.50
2018-05-31T22:13:54.179Z,76.60
2018-05-31T22:16:29.478Z,77.00
2018-05-31T22:19:04.785Z,77.20
2018-05-31T22:21:40.451Z,77.50
2018-05-31T22:24:16.413Z,78.00
2018-05-31T22:26:51.789Z,78.00
2018-05-31T22:29:27.006Z,77.40
2018-05-31T22:32:02.254Z,78.30
2018-05-31T22:34:37.440Z,77.90
2018-05-31T22:37:13.071Z,77.90
2018-05-31T22:39:48.979Z,79.10
2018-05-31T22:42:24.981Z,79.20
2018-05-31T22:45:00.382Z,79.30
2018-05-31T22:47:36.321Z,79.80
2018-05-31T22:50:11.610Z,79.90
2018-05-31T22:52:47.528Z,80.80
2018-05-31T22:55:22.759Z,80.80
2018-05-31T22:57:57.895Z,80.50
2018-05-31T23:00:33.467Z,80.60
2018-05-31T23:03:08.680Z,80.10
2018-05-31T23:05:44.065Z,80.00
2018-05-31T23:08:20.077Z,78.90
2018-05-31T23:10:55.230Z,79.00
2018-05-31T23:13:30.439Z,78.70
2018-05-31T23:16:05.732Z,78.90
2018-05-31T23:18:41.646Z,79.00
2018-05-31T23:21:17.544Z,79.10
2018-05-31T23:23:52.735Z,79.10
2018-05-31T23:26:29.096Z,79.00
2018-05-31T23:29:04.159Z,79.70
2018-05-31T23:31:39.948Z,79.80
2018-05-31T23:34:15.033Z,79.70
2018-05-31T23:36:50.987Z,79.70
2018-05-31T23:39:26.491Z,79.70
2018-05-31T23:42:01.813Z,79.90
2018-05-31T23:44:37.036Z,80.30
2018-05-31T23:47:12.371Z,80.70
2018-05-31T23:49:47.692Z,80.70
2018-05-31T23:52:22.865Z,80.90
2018-05-31T23:54:58.809Z,80.60
2018-05-31T23:57:34.785Z,81.70
